Time;durP1;ratioP1;P1;durP2;ratioP2;P2;SDS_P1;SDS_P2;PMS_P1;PMS_P2;Temp;Humidity;BMP_temperature;BMP_pressure;BME280_temperature;BME280_humidity;BME280_pressure;Samples;Min_cycle;Max_cycle;Signal;HPM_P1;HPM_P2
2021/03/14 00:01:18;;;;;;;24.77;15.98;;;;;;;7.80;78.15;99196.56;5100966;27;20027;-73
2021/03/14 00:03:44;;;;;;;27.13;16.70;;;;;;;7.66;77.81;99177.09;5135728;27;20043;-71
2021/03/14 00:06:09;;;;;;;25.65;15.88;;;;;;;7.78;77.89;99185.19;5117791;27;20075;-72
2021/03/14 00:08:35;;;;;;;27.42;16.67;;;;;;;7.80;78.00;99194.75;5117504;27;20030;-74
2021/03/14 00:11:05;;;;;;;25.17;15.98;;;;;;;7.78;78.17;99201.97;5100498;27;20489;-74
2021/03/14 00:13:33;;;;;;;28.45;17.10;;;;;;;7.64;78.55;99199.38;5135779;27;20427;-72
2021/03/14 00:16:00;;;;;;;24.10;15.93;;;;;;;7.68;78.84;99208.84;5135891;27;20230;-68
2021/03/14 00:18:34;;;;;;;25.77;16.92;;;;;;;7.67;78.78;99212.44;5135922;27;20083;-71
2021/03/14 00:21:01;;;;;;;24.27;16.77;;;;;;;7.71;78.47;99213.94;5135781;27;20080;-71
2021/03/14 00:23:27;;;;;;;25.88;16.52;;;;;;;7.61;78.53;99189.78;5134217;27;20046;-69
2021/03/14 00:25:54;;;;;;;25.88;17.30;;;;;;;7.66;78.89;99202.78;5135625;27;20031;-71
2021/03/14 00:28:20;;;;;;;25.27;16.33;;;;;;;7.70;78.99;99204.28;5135573;27;20045;-71
2021/03/14 00:30:46;;;;;;;25.17;16.65;;;;;;;7.66;78.90;99208.09;5117074;27;20027;-71
2021/03/14 00:33:11;;;;;;;23.73;16.45;;;;;;;7.63;79.07;99208.28;5135358;27;20026;-69
2021/03/14 00:35:37;;;;;;;24.02;15.82;;;;;;;7.59;79.26;99199.66;5135333;27;20046;-68
2021/03/14 00:38:03;;;;;;;25.13;16.85;;;;;;;7.60;79.22;99195.19;5117078;27;20062;-69
2021/03/14 00:40:29;;;;;;;26.90;16.75;;;;;;;7.58;79.21;99189.16;5117227;27;20027;-70
2021/03/14 00:42:58;;;;;;;24.80;16.75;;;;;;;7.61;78.93;99181.81;5135239;27;20027;-69
2021/03/14 00:45:23;;;;;;;27.52;16.98;;;;;;;7.73;78.86;99189.00;5134511;27;20106;-70
2021/03/14 00:47:49;;;;;;;25.95;16.77;;;;;;;7.74;78.58;99181.91;5116868;27;20090;-73
2021/03/14 00:50:15;;;;;;;24.48;15.73;;;;;;;7.70;78.84;99183.03;5116673;27;20039;-72
2021/03/14 00:52:42;;;;;;;26.17;16.38;;;;;;;7.74;78.79;99179.25;5135794;27;20023;-73
2021/03/14 00:55:08;;;;;;;24.30;15.80;;;;;;;7.76;78.61;99172.03;5116986;27;20033;-71
2021/03/14 00:57:34;;;;;;;27.67;16.33;;;;;;;7.67;79.15;99177.94;5135735;27;20031;-74
2021/03/14 00:59:59;;;;;;;26.30;16.45;;;;;;;7.73;78.83;99170.44;5117424;27;20031;-74
2021/03/14 01:02:25;;;;;;;25.10;15.18;;;;;;;7.74;78.68;99171.28;5117454;27;20438;-75
2021/03/14 01:04:50;;;;;;;26.38;16.17;;;;;;;7.65;78.99;99167.44;5135323;27;20047;-74
2021/03/14 01:07:16;;;;;;;24.67;16.77;;;;;;;7.66;79.13;99170.94;5116914;27;20035;-73
2021/03/14 01:09:41;;;;;;;25.65;15.85;;;;;;;7.54;79.75;99171.72;5135289;27;20381;-73
2021/03/14 01:12:08;;;;;;;25.55;16.83;;;;;;;7.56;79.65;99160.06;5099708;27;20090;-70
2021/03/14 01:14:35;;;;;;;26.90;16.77;;;;;;;7.47;80.08;99161.50;5135385;27;20031;-70
2021/03/14 01:17:00;;;;;;;26.63;16.63;;;;;;;7.45;80.26;99167.88;5134975;27;20054;-71
2021/03/14 01:19:26;;;;;;;28.08;17.95;;;;;;;7.42;80.40;99170.69;5135200;27;20484;-71
2021/03/14 01:21:52;;;;;;;26.80;16.80;;;;;;;7.47;79.84;99164.16;5135236;27;20023;-71
2021/03/14 01:24:17;;;;;;;25.27;16.73;;;;;;;7.53;79.78;99159.38;5116157;27;20027;-71
2021/03/14 01:26:43;;;;;;;27.65;16.65;;;;;;;7.50;79.78;99165.75;5135035;27;20130;-71
2021/03/14 01:29:08;;;;;;;24.60;15.00;;;;;;;7.50;79.79;99162.25;5134638;27;20027;-71
2021/03/14 01:31:34;;;;;;;25.08;15.82;;;;;;;7.47;80.05;99160.66;5134906;27;20027;-71
2021/03/14 01:33:59;;;;;;;25.88;16.05;;;;;;;7.43;79.98;99154.72;5134544;27;20493;-71
2021/03/14 01:36:25;;;;;;;26.42;16.40;;;;;;;7.41;80.12;99151.28;5134896;27;20031;-70
2021/03/14 01:38:50;;;;;;;28.52;16.63;;;;;;;7.36;80.25;99152.53;5134822;27;20431;-71
2021/03/14 01:41:16;;;;;;;24.83;15.70;;;;;;;7.44;80.02;99161.72;5134438;27;20030;-71
2021/03/14 01:43:42;;;;;;;27.98;16.67;;;;;;;7.41;80.18;99167.19;5134778;27;20027;-70
2021/03/14 01:46:09;;;;;;;26.20;15.55;;;;;;;7.53;79.80;99165.56;5134500;27;20110;-71
2021/03/14 01:48:36;;;;;;;26.35;16.20;;;;;;;7.49;79.90;99177.31;5133919;27;20492;-70
2021/03/14 01:51:03;;;;;;;23.95;16.08;;;;;;;7.52;79.92;99181.56;5134207;27;20106;-71
2021/03/14 01:53:30;;;;;;;24.83;15.18;;;;;;;7.52;79.76;99176.25;5134528;27;20051;-72
2021/03/14 01:55:55;;;;;;;27.48;16.58;;;;;;;7.45;80.08;99174.03;5116267;27;20080;-71
2021/03/14 01:58:23;;;;;;;25.77;15.38;;;;;;;7.48;80.00;99167.66;5134202;27;20064;-70
2021/03/14 02:00:51;;;;;;;29.17;16.88;;;;;;;7.47;79.80;99172.13;5116381;27;20024;-69
2021/03/14 02:03:17;;;;;;;24.92;16.17;;;;;;;7.45;79.83;99174.03;5133796;27;20066;-70
2021/03/14 02:05:42;;;;;;;25.15;15.70;;;;;;;7.42;80.14;99170.69;5134395;27;20023;-69
2021/03/14 02:08:08;;;;;;;26.13;15.93;;;;;;;7.55;79.44;99160.16;5133949;27;20512;-69
2021/03/14 02:10:36;;;;;;;22.48;14.07;;;;;;;7.53;78.80;99164.69;5134364;27;20034;-69
2021/03/14 02:13:10;;;;;;;23.50;14.10;;;;;;;7.56;78.71;99160.06;5134043;27;20035;-70
2021/03/14 02:15:40;;;;;;;20.88;13.10;;;;;;;7.51;78.16;99145.38;5134181;27;20033;-68
2021/03/14 02:18:07;;;;;;;22.83;12.70;;;;;;;7.56;78.10;99151.25;5133779;27;20023;-67
2021/03/14 02:20:35;;;;;;;24.08;13.88;;;;;;;7.56;77.59;99153.91;5134119;27;20023;-68
2021/03/14 02:23:15;;;;;;;20.70;12.93;;;;;;;7.60;77.68;99153.59;5133641;27;20054;-71
2021/03/14 02:26:06;;;;;;;23.08;13.80;;;;;;;7.58;77.13;99144.88;5134072;27;20395;-69
2021/03/14 02:28:34;;;;;;;23.65;12.77;;;;;;;7.54;77.12;99146.06;5134369;27;20099;-69
2021/03/14 02:31:00;;;;;;;20.05;12.57;;;;;;;7.50;77.17;99149.84;5134532;27;20219;-74
2021/03/14 02:33:29;;;;;;;19.63;12.48;;;;;;;7.67;76.41;99162.00;5134337;27;20030;-70
2021/03/14 02:35:57;;;;;;;21.08;12.68;;;;;;;7.68;76.55;99150.44;5134298;27;20418;-71
2021/03/14 02:38:23;;;;;;;20.75;13.10;;;;;;;7.67;76.35;99146.94;5133924;27;20397;-71
2021/03/14 02:40:49;;;;;;;20.23;12.55;;;;;;;7.62;76.17;99161.44;5133957;27;20080;-70
2021/03/14 02:43:15;;;;;;;20.83;12.10;;;;;;;7.63;76.09;99163.19;5133557;27;20054;-70
2021/03/14 02:45:41;;;;;;;20.80;12.02;;;;;;;7.75;75.26;99149.94;5133729;28;20029;-69
2021/03/14 02:48:08;;;;;;;22.63;11.50;;;;;;;7.77;74.74;99147.19;5115408;27;20027;-70
2021/03/14 02:50:34;;;;;;;22.92;11.70;;;;;;;7.92;74.33;99156.78;5115570;28;20027;-70
2021/03/14 02:53:00;;;;;;;19.80;11.75;;;;;;;7.97;73.72;99165.28;5133649;27;20096;-70
2021/03/14 02:55:26;;;;;;;18.15;11.45;;;;;;;7.87;73.88;99166.84;5133704;27;20130;-70
2021/03/14 02:57:54;;;;;;;19.70;11.05;;;;;;;7.79;73.86;99161.19;5133620;27;20046;-69
2021/03/14 03:00:22;;;;;;;19.17;10.60;;;;;;;7.85;73.76;99171.44;5137262;27;20019;-70
2021/03/14 03:02:51;;;;;;;20.02;11.35;;;;;;;7.82;74.27;99176.09;5137610;27;20169;-70
2021/03/14 03:05:19;;;;;;;18.67;11.05;;;;;;;7.78;74.21;99161.31;5137503;27;20019;-70
2021/03/14 03:07:51;;;;;;;20.75;12.18;;;;;;;7.72;74.26;99165.19;5119373;27;20023;-70
2021/03/14 03:10:18;;;;;;;19.35;11.45;;;;;;;7.78;74.02;99174.56;5137303;27;20031;-71
2021/03/14 03:12:46;;;;;;;20.60;11.40;;;;;;;7.81;73.64;99169.06;5137623;27;20388;-72
2021/03/14 03:15:15;;;;;;;18.85;10.77;;;;;;;7.89;73.24;99156.97;5137428;27;20095;-70
2021/03/14 03:17:42;;;;;;;20.17;11.48;;;;;;;7.91;72.70;99157.75;5137511;27;20102;-70
2021/03/14 03:20:09;;;;;;;19.52;11.32;;;;;;;7.89;73.01;99161.44;5137248;27;20102;-70
2021/03/14 03:22:35;;;;;;;18.02;11.15;;;;;;;7.85;72.97;99160.81;5137601;27;20038;-71
2021/03/14 03:25:00;;;;;;;21.05;11.50;;;;;;;7.90;73.15;99169.31;5137363;27;20035;-70
2021/03/14 03:27:26;;;;;;;19.10;11.45;;;;;;;7.89;73.37;99158.78;5137042;27;20039;-70
2021/03/14 03:29:52;;;;;;;19.38;10.88;;;;;;;7.91;72.75;99165.72;5137322;27;20031;-72
2021/03/14 03:32:19;;;;;;;20.27;11.45;;;;;;;7.88;72.94;99180.97;5137033;27;20031;-70
2021/03/14 03:34:44;;;;;;;22.30;11.98;;;;;;;7.81;73.08;99163.75;5137354;27;20031;-72
2021/03/14 03:37:10;;;;;;;21.15;11.65;;;;;;;7.80;73.36;99162.91;5118605;27;20046;-72
2021/03/14 03:39:36;;;;;;;18.80;10.95;;;;;;;7.82;73.16;99163.66;5137172;27;20026;-70
2021/03/14 03:42:17;;;;;;;21.80;11.40;;;;;;;7.82;73.22;99161.03;5118715;27;20035;-70
2021/03/14 03:44:43;;;;;;;21.88;10.30;;;;;;;7.80;72.48;99162.91;5137128;27;20034;-71
2021/03/14 03:47:11;;;;;;;20.10;10.57;;;;;;;7.82;72.38;99155.72;5118407;27;20027;-71
2021/03/14 03:49:39;;;;;;;19.20;10.52;;;;;;;7.84;72.38;99153.78;5136952;27;20019;-70
2021/03/14 03:52:05;;;;;;;18.23;10.70;;;;;;;7.86;72.71;99143.91;5136930;27;20389;-73
2021/03/14 03:54:31;;;;;;;20.52;10.60;;;;;;;7.91;72.54;99143.59;5137032;27;20031;-71
2021/03/14 03:56:58;;;;;;;20.60;11.13;;;;;;;7.85;72.22;99144.88;5136872;27;20056;-70
2021/03/14 03:59:27;;;;;;;20.20;10.65;;;;;;;7.85;72.16;99139.56;5136428;27;20470;-69
2021/03/14 04:01:53;;;;;;;19.85;10.45;;;;;;;7.89;71.82;99148.16;5136730;27;20106;-69
2021/03/14 04:04:20;;;;;;;16.73;10.15;;;;;;;7.96;71.67;99152.97;5136204;27;20127;-70
2021/03/14 04:06:50;;;;;;;17.88;10.13;;;;;;;7.93;71.61;99162.97;5136652;27;20030;-70
2021/03/14 04:09:16;;;;;;;18.60;10.70;;;;;;;7.92;71.85;99167.41;5136070;27;20027;-70
2021/03/14 04:11:42;;;;;;;19.83;10.88;;;;;;;7.87;71.65;99164.19;5135929;27;20027;-69
2021/03/14 04:14:09;;;;;;;17.95;10.38;;;;;;;7.93;71.11;99158.50;5136171;27;20031;-73
2021/03/14 04:16:37;;;;;;;18.15;10.15;;;;;;;7.90;71.19;99155.16;5136448;27;20023;-70
2021/03/14 04:19:04;;;;;;;16.58;9.98;;;;;;;7.93;71.28;99158.50;5136479;27;20062;-69
2021/03/14 04:21:31;;;;;;;20.38;10.25;;;;;;;7.88;71.67;99149.97;5136340;27;20042;-69
2021/03/14 04:23:57;;;;;;;16.92;10.63;;;;;;;7.89;71.53;99146.34;5136224;27;20035;-70
2021/03/14 04:26:23;;;;;;;19.30;10.65;;;;;;;7.99;71.42;99146.59;5135990;27;20547;-70
2021/03/14 04:28:52;;;;;;;19.95;10.85;;;;;;;7.95;70.96;99139.81;5136238;27;20039;-69
2021/03/14 04:31:19;;;;;;;20.55;10.93;;;;;;;7.98;71.15;99139.59;5135822;27;20033;-71
2021/03/14 04:33:45;;;;;;;19.38;11.27;;;;;;;7.96;71.18;99152.13;5136091;27;20030;-70
2021/03/14 04:36:12;;;;;;;20.98;11.90;;;;;;;7.95;71.22;99156.59;5135667;27;20028;-69
2021/03/14 04:38:45;;;;;;;20.10;10.82;;;;;;;7.91;71.91;99148.91;5136015;27;20027;-69
2021/03/14 04:41:12;;;;;;;22.42;12.23;;;;;;;7.93;71.58;99158.50;5135916;27;20038;-71
2021/03/14 04:43:38;;;;;;;21.23;12.07;;;;;;;7.84;71.89;99169.72;5117655;27;20031;-69
2021/03/14 04:46:04;;;;;;;19.77;12.02;;;;;;;7.89;71.96;99178.22;5100636;27;20043;-69
2021/03/14 04:48:30;;;;;;;18.30;11.93;;;;;;;7.85;71.86;99189.16;5135494;27;20031;-69
2021/03/14 04:50:55;;;;;;;22.10;12.65;;;;;;;7.80;72.17;99192.09;5135712;27;20484;-69
2021/03/14 04:53:24;;;;;;;17.42;11.07;;;;;;;7.77;72.17;99200.28;5135377;27;20027;-70
2021/03/14 04:55:52;;;;;;;22.55;11.85;;;;;;;7.69;72.38;99187.50;5135602;27;20049;-70
2021/03/14 04:58:21;;;;;;;21.10;12.02;;;;;;;7.65;72.56;99190.47;5135179;27;20504;-71
2021/03/14 05:00:46;;;;;;;21.45;11.50;;;;;;;7.68;72.62;99192.91;5135510;27;20023;-69
2021/03/14 05:03:14;;;;;;;19.85;11.38;;;;;;;7.62;72.81;99195.94;5116620;27;20134;-69
2021/03/14 05:05:44;;;;;;;18.15;10.95;;;;;;;7.65;72.72;99196.63;5135492;27;20393;-66
2021/03/14 05:08:11;;;;;;;19.90;11.45;;;;;;;7.75;72.15;99194.22;5135612;27;20365;-73
2021/03/14 05:10:39;;;;;;;19.50;11.50;;;;;;;7.66;72.62;99192.16;5135234;27;20028;-66
2021/03/14 05:13:05;;;;;;;18.70;11.77;;;;;;;7.70;72.54;99194.50;5135305;27;20023;-66
2021/03/14 05:15:31;;;;;;;16.75;10.95;;;;;;;7.67;73.06;99212.44;5134876;27;20058;-66
2021/03/14 05:17:57;;;;;;;18.17;11.38;;;;;;;7.70;73.00;99214.88;5116793;27;20516;-70
2021/03/14 05:20:24;;;;;;;19.88;11.15;;;;;;;7.76;72.57;99209.19;5116365;27;20035;-70
2021/03/14 05:22:50;;;;;;;22.50;11.60;;;;;;;7.77;72.77;99210.91;5116019;27;20071;-72
2021/03/14 05:25:18;;;;;;;19.55;10.57;;;;;;;7.71;72.17;99198.00;5134832;27;20500;-69
2021/03/14 05:27:49;;;;;;;21.73;11.00;;;;;;;7.72;72.51;99186.44;5134920;27;20023;-68
2021/03/14 05:30:17;;;;;;;19.63;11.43;;;;;;;7.65;72.97;99174.53;5134450;27;20027;-68
2021/03/14 05:32:43;;;;;;;19.27;10.43;;;;;;;7.77;72.38;99192.31;5135084;27;20043;-68
2021/03/14 05:35:09;;;;;;;20.98;10.80;;;;;;;7.83;72.12;99191.91;5116480;27;20023;-69
2021/03/14 05:37:35;;;;;;;20.70;10.65;;;;;;;7.81;72.50;99196.44;5116429;27;20042;-70
2021/03/14 05:40:00;;;;;;;17.90;10.70;;;;;;;7.82;72.38;99197.34;5134691;27;20358;-71
2021/03/14 05:42:28;;;;;;;19.55;11.60;;;;;;;7.83;72.76;99189.25;5134450;27;20047;-70
2021/03/14 05:44:54;;;;;;;20.83;12.07;;;;;;;7.80;73.38;99199.22;5134660;27;20030;-72
2021/03/14 05:47:20;;;;;;;19.48;11.60;;;;;;;7.82;73.38;99198.19;5136434;27;20043;-72
2021/03/14 05:49:46;;;;;;;19.70;11.38;;;;;;;7.79;73.17;99198.38;5135465;27;20027;-72
2021/03/14 05:52:16;;;;;;;20.98;10.77;;;;;;;7.80;73.66;99194.75;5134411;27;20076;-70
2021/03/14 05:54:42;;;;;;;17.50;10.60;;;;;;;7.79;73.39;99198.38;5134358;27;20348;-71
2021/03/14 05:57:08;;;;;;;18.35;10.52;;;;;;;7.82;73.33;99200.00;5116219;27;20031;-71
2021/03/14 05:59:34;;;;;;;17.95;10.57;;;;;;;7.91;73.07;99213.50;5134029;27;20182;-69
2021/03/14 06:02:00;;;;;;;17.88;11.02;;;;;;;7.93;73.80;99222.22;5134336;27;20035;-69
2021/03/14 06:04:27;;;;;;;16.48;9.95;;;;;;;7.97;73.42;99215.75;5115437;27;20080;-71
2021/03/14 06:06:53;;;;;;;16.88;10.07;;;;;;;8.03;72.56;99202.06;5116332;27;20031;-70
2021/03/14 06:09:19;;;;;;;14.30;9.00;;;;;;;8.08;71.05;99192.94;5115574;27;20529;-71
2021/03/14 06:11:45;;;;;;;18.60;9.88;;;;;;;8.31;71.18;99227.66;5134168;27;20031;-69
2021/03/14 06:14:11;;;;;;;18.67;10.93;;;;;;;8.43;71.74;99233.97;5115739;27;20076;-70
2021/03/14 06:16:36;;;;;;;18.42;10.35;;;;;;;8.39;70.92;99235.13;5133609;27;20035;-70
2021/03/14 06:19:02;;;;;;;18.58;10.00;;;;;;;8.44;70.93;99242.78;5115792;28;20565;-69
2021/03/14 06:21:30;;;;;;;19.20;10.40;;;;;;;8.41;70.71;99238.53;5133846;27;20019;-70
2021/03/14 06:24:05;;;;;;;17.80;10.30;;;;;;;8.44;70.82;99227.69;5115563;27;20038;-70
2021/03/14 06:26:43;;;;;;;18.05;9.93;;;;;;;8.51;70.61;99228.16;5133731;27;20029;-70
2021/03/14 06:29:17;;;;;;;20.73;10.15;;;;;;;8.61;69.93;99234.53;5134065;27;20031;-71
2021/03/14 06:31:47;;;;;;;17.05;9.95;;;;;;;8.71;69.57;99234.75;5133775;27;20033;-71
2021/03/14 06:34:30;;;;;;;18.98;9.38;;;;;;;8.81;69.38;99230.50;5115877;27;20458;-70
2021/03/14 06:36:59;;;;;;;15.83;9.10;;;;;;;8.85;69.15;99234.66;5116619;27;20499;-71
2021/03/14 06:39:28;;;;;;;16.65;8.73;;;;;;;8.90;68.47;99229.88;5133357;27;20346;-71
2021/03/14 06:41:54;;;;;;;15.20;8.98;;;;;;;8.91;68.06;99228.91;5133719;27;20080;-71
2021/03/14 06:44:26;;;;;;;13.57;8.63;;;;;;;8.91;67.89;99226.25;5133376;27;20027;-70
2021/03/14 06:46:51;;;;;;;12.95;7.63;;;;;;;8.92;68.10;99222.63;5133673;28;20034;-70
2021/03/14 06:49:19;;;;;;;19.35;10.52;;;;;;;9.00;68.52;99225.63;5133560;28;20031;-70
2021/03/14 06:51:54;;;;;;;15.60;9.45;;;;;;;9.00;67.57;99222.97;5133475;28;20035;-70
2021/03/14 06:54:37;;;;;;;14.63;8.45;;;;;;;9.03;67.19;99225.38;5133116;28;20031;-70
2021/03/14 06:57:04;;;;;;;14.03;7.77;;;;;;;9.00;67.28;99230.94;5133598;27;20038;-69
2021/03/14 06:59:31;;;;;;;13.95;6.97;;;;;;;9.09;66.05;99230.28;5133193;28;20084;-69
2021/03/14 07:02:04;;;;;;;19.55;9.73;;;;;;;9.05;65.46;99228.78;5133501;28;20035;-70
2021/03/14 07:04:50;;;;;;;17.45;8.48;;;;;;;9.11;65.13;99223.03;5133142;28;20058;-67
2021/03/14 07:07:41;;;;;;;14.93;7.57;;;;;;;9.10;65.03;99226.66;5133537;28;20041;-67
2021/03/14 07:10:15;;;;;;;15.40;7.03;;;;;;;9.04;65.48;99236.88;5122731;28;20039;-68
2021/03/14 07:12:45;;;;;;;14.20;6.57;;;;;;;8.99;64.67;99242.53;5133016;28;20016;-69
2021/03/14 07:15:12;;;;;;;12.80;6.68;;;;;;;8.97;64.62;99243.56;5133421;28;20031;-69
2021/03/14 07:17:38;;;;;;;14.05;6.88;;;;;;;9.05;63.85;99259.84;5133097;27;20050;-68
2021/03/14 07:20:13;;;;;;;11.85;6.47;;;;;;;8.99;64.76;99261.16;5133451;28;20019;-70
2021/03/14 07:22:39;;;;;;;11.40;6.28;;;;;;;8.92;64.98;99265.19;5132994;27;20038;-69
2021/03/14 07:25:21;;;;;;;10.38;6.13;;;;;;;8.97;64.97;99271.03;5133614;28;20487;-69
2021/03/14 07:27:48;;;;;;;11.43;6.10;;;;;;;9.04;64.86;99264.31;5133418;28;20389;-68
2021/03/14 07:30:16;;;;;;;11.55;5.95;;;;;;;9.02;65.30;99260.94;5133106;28;20019;-68
2021/03/14 07:32:42;;;;;;;10.18;5.90;;;;;;;9.21;64.78;99281.78;5132852;28;20063;-70
2021/03/14 07:35:09;;;;;;;12.57;6.20;;;;;;;9.22;66.26;99282.63;5114933;28;20024;-70
2021/03/14 07:37:34;;;;;;;11.73;6.63;;;;;;;9.33;65.87;99286.25;5132872;28;20032;-70
2021/03/14 07:40:00;;;;;;;12.30;6.32;;;;;;;9.24;65.76;99284.22;5133099;28;20024;-70
2021/03/14 07:42:25;;;;;;;11.18;6.20;;;;;;;9.29;65.91;99290.09;5097639;28;20069;-71
2021/03/14 07:44:51;;;;;;;9.73;5.45;;;;;;;9.25;65.80;99287.72;5133077;27;20031;-72
2021/03/14 07:47:20;;;;;;;9.55;4.65;;;;;;;9.17;66.82;99288.28;5136437;27;20029;-72
2021/03/14 07:49:53;;;;;;;8.27;3.80;;;;;;;9.23;65.93;99292.31;5118288;27;20019;-70
2021/03/14 07:52:27;;;;;;;5.65;3.30;;;;;;;9.13;67.41;99287.63;5118316;27;20323;-72
2021/03/14 07:54:58;;;;;;;6.93;2.75;;;;;;;9.11;66.01;99296.69;5136956;27;20507;-71
2021/03/14 07:57:25;;;;;;;4.97;2.80;;;;;;;8.96;67.75;99293.25;5136579;27;20027;-74
2021/03/14 07:59:51;;;;;;;5.40;2.67;;;;;;;8.83;67.56;99305.69;5136641;27;20039;-70
2021/03/14 08:02:16;;;;;;;5.35;2.38;;;;;;;8.92;68.26;99302.41;5136504;27;20030;-70
2021/03/14 08:04:45;;;;;;;3.90;2.42;;;;;;;8.84;68.00;99299.44;5136078;27;20451;-70
2021/03/14 08:07:11;;;;;;;3.90;1.60;;;;;;;8.79;67.46;99302.41;5136749;27;20025;-70
2021/03/14 08:09:45;;;;;;;3.72;1.52;;;;;;;8.62;67.65;99315.97;5136270;27;20449;-68
2021/03/14 08:12:16;;;;;;;3.45;1.73;;;;;;;8.59;68.67;99325.03;5136455;27;20023;-71
2021/03/14 08:14:46;;;;;;;3.60;1.38;;;;;;;8.53;68.49;99327.22;5136041;27;20393;-71
2021/03/14 08:17:20;;;;;;;3.13;1.60;;;;;;;8.61;69.69;99335.56;5136431;27;20031;-73
2021/03/14 08:19:47;;;;;;;3.95;1.52;;;;;;;8.29;68.71;99292.44;5136027;27;20019;-73
2021/03/14 08:22:41;;;;;;;3.05;1.52;;;;;;;8.48;70.66;99331.97;5136246;27;20046;-72
2021/03/14 08:25:17;;;;;;;3.42;1.48;;;;;;;8.48;70.62;99332.84;5117688;27;20397;-72
2021/03/14 08:27:43;;;;;;;4.05;1.67;;;;;;;8.38;71.75;99315.78;5117584;27;20027;-67
2021/03/14 08:30:09;;;;;;;4.10;1.88;;;;;;;8.32;71.96;99334.78;5117626;27;20031;-66
2021/03/14 08:32:35;;;;;;;2.60;1.33;;;;;;;8.29;71.80;99319.00;5117541;27;20062;-71
2021/03/14 08:35:00;;;;;;;3.83;1.38;;;;;;;8.33;71.41;99325.84;5135902;27;20058;-69
2021/03/14 08:37:27;;;;;;;6.13;1.70;;;;;;;8.36;73.62;99320.38;5117748;27;20131;-69
2021/03/14 08:40:04;;;;;;;3.45;1.48;;;;;;;8.34;73.27;99322.25;5135684;27;20019;-70
2021/03/14 08:42:55;;;;;;;5.40;1.70;;;;;;;8.27;73.63;99331.56;5135474;27;20118;-72
2021/03/14 08:45:26;;;;;;;2.58;1.45;;;;;;;8.39;73.30;99325.47;5135791;27;20489;-69
2021/03/14 08:47:52;;;;;;;3.47;1.40;;;;;;;8.31;73.34;99325.97;5135574;27;20179;-71
2021/03/14 08:50:19;;;;;;;3.00;1.42;;;;;;;8.28;73.91;99320.81;5135601;27;20072;-74
2021/03/14 08:52:44;;;;;;;2.75;1.23;;;;;;;8.29;73.56;99322.53;5135325;27;20031;-75
2021/03/14 08:55:10;;;;;;;3.42;1.30;;;;;;;8.31;74.06;99328.63;5100432;27;20054;-71
2021/03/14 08:57:36;;;;;;;2.17;1.10;;;;;;;8.40;73.41;99335.16;5117044;27;20019;-72
2021/03/14 09:00:05;;;;;;;3.53;1.30;;;;;;;8.47;73.70;99341.75;5135842;27;20034;-71
2021/03/14 09:02:32;;;;;;;3.33;1.40;;;;;;;8.53;73.97;99349.34;5116680;27;20027;-72
2021/03/14 09:05:19;;;;;;;4.78;1.60;;;;;;;8.56;73.19;99353.59;5118837;27;20035;-70
2021/03/14 09:08:00;;;;;;;3.70;1.67;;;;;;;8.52;72.98;99352.97;5137914;27;20049;-76
2021/03/14 09:10:26;;;;;;;3.45;1.50;;;;;;;8.47;72.32;99352.38;5116918;27;20023;-73
2021/03/14 09:13:00;;;;;;;2.25;1.25;;;;;;;8.46;72.05;99357.81;5135014;27;20030;-70
2021/03/14 09:15:26;;;;;;;3.10;1.55;;;;;;;8.49;73.79;99368.22;5135156;27;20031;-73
2021/03/14 09:17:57;;;;;;;4.13;1.30;;;;;;;8.44;71.58;99357.06;5134901;27;20138;-75
2021/03/14 09:20:23;;;;;;;2.67;1.20;;;;;;;8.39;71.99;99352.03;5134483;27;20026;-72
2021/03/14 09:22:49;;;;;;;2.30;1.30;;;;;;;8.55;72.21;99357.22;5116507;27;20114;-71
2021/03/14 09:25:15;;;;;;;3.00;1.20;;;;;;;8.54;71.59;99347.53;5131906;27;20126;-72
2021/03/14 09:27:44;;;;;;;2.50;1.30;;;;;;;8.68;70.50;99339.47;5103873;27;20031;-70
2021/03/14 09:30:19;;;;;;;4.13;1.38;;;;;;;8.75;69.46;99339.94;5108749;27;20012;-71
2021/03/14 09:32:52;;;;;;;3.03;1.20;;;;;;;8.76;69.37;99338.97;5129966;27;20023;-73
2021/03/14 09:35:26;;;;;;;2.72;1.23;;;;;;;8.78;69.42;99327.31;5125522;27;20023;-71
2021/03/14 09:38:08;;;;;;;2.20;1.10;;;;;;;8.81;69.31;99328.91;5125129;27;20425;-71
2021/03/14 09:40:39;;;;;;;2.60;1.17;;;;;;;8.66;70.15;99329.91;5098444;28;20026;-72
2021/03/14 09:43:20;;;;;;;2.30;0.90;;;;;;;8.71;70.25;99338.44;5117117;27;20451;-74
2021/03/14 09:45:55;;;;;;;2.75;1.10;;;;;;;8.82;69.69;99330.59;5134494;27;20437;-75
2021/03/14 09:48:25;;;;;;;2.97;1.10;;;;;;;8.93;70.69;99324.53;5134527;27;20037;-72
2021/03/14 09:51:06;;;;;;;1.90;1.10;;;;;;;8.93;69.60;99324.53;5134195;27;20023;-70
2021/03/14 09:53:36;;;;;;;2.42;0.95;;;;;;;8.89;69.81;99335.41;5134642;27;20031;-78
2021/03/14 09:56:04;;;;;;;1.77;0.88;;;;;;;9.03;69.38;99337.09;5116237;27;20023;-70
2021/03/14 09:58:30;;;;;;;2.75;0.88;;;;;;;8.96;67.33;99338.47;5116034;27;20019;-69
2021/03/14 10:00:58;;;;;;;2.28;1.20;;;;;;;8.95;69.65;99336.78;5134051;27;20027;-69
2021/03/14 10:03:25;;;;;;;2.28;1.10;;;;;;;9.00;69.62;99329.34;5134001;27;20466;-70
2021/03/14 10:05:59;;;;;;;3.85;1.10;;;;;;;9.15;69.14;99320.28;5133945;27;20025;-71
2021/03/14 10:08:28;;;;;;;2.65;1.02;;;;;;;9.08;69.65;99327.03;5136039;27;20560;-70
2021/03/14 10:11:06;;;;;;;2.85;1.08;;;;;;;9.12;69.03;99322.31;5133787;27;20026;-74
2021/03/14 10:13:33;;;;;;;2.88;1.30;;;;;;;9.12;69.08;99315.19;5129998;27;20448;-72
2021/03/14 10:16:01;;;;;;;1.98;0.80;;;;;;;9.17;68.82;99321.06;5134099;27;20385;-72
2021/03/14 10:18:28;;;;;;;2.45;0.90;;;;;;;9.34;67.85;99327.00;5133581;27;20026;-75
2021/03/14 10:21:14;;;;;;;2.50;0.93;;;;;;;9.40;67.78;99323.94;5133592;27;20444;-71
2021/03/14 10:23:40;;;;;;;4.18;1.17;;;;;;;9.26;68.28;99326.69;5114327;27;20043;-72
2021/03/14 10:26:11;;;;;;;3.60;1.25;;;;;;;9.36;68.57;99312.66;5133562;27;20431;-72
2021/03/14 10:28:39;;;;;;;2.60;1.13;;;;;;;9.46;68.75;99323.50;5131718;27;20027;-69
2021/03/14 10:31:06;;;;;;;2.38;0.88;;;;;;;9.33;67.14;99317.31;5127993;27;20105;-70
2021/03/14 10:33:35;;;;;;;2.85;0.95;;;;;;;9.34;68.02;99321.69;5129917;27;20027;-71
2021/03/14 10:36:06;;;;;;;3.33;1.30;;;;;;;9.41;67.10;99317.66;5114429;28;20168;-72
2021/03/14 10:38:49;;;;;;;1.88;0.90;;;;;;;9.51;66.99;99323.19;5119349;27;20035;-69
2021/03/14 10:41:19;;;;;;;3.03;1.30;;;;;;;9.56;68.26;99329.91;5114234;28;20028;-69
2021/03/14 10:43:50;;;;;;;2.45;1.10;;;;;;;9.45;66.02;99321.78;5129965;27;20031;-71
2021/03/14 10:46:45;;;;;;;2.95;1.10;;;;;;;9.44;66.56;99322.75;5131872;27;20027;-71
2021/03/14 10:49:16;;;;;;;1.52;1.10;;;;;;;9.64;65.10;99319.53;5125710;27;20043;-70
2021/03/14 10:51:43;;;;;;;3.45;1.55;;;;;;;9.67;64.76;99299.84;5132034;28;20106;-70
2021/03/14 10:54:12;;;;;;;3.28;1.20;;;;;;;9.77;64.12;99316.84;5133051;27;20092;-71
2021/03/14 10:56:42;;;;;;;2.10;1.30;;;;;;;9.78;65.16;99315.91;5131743;28;20027;-71
2021/03/14 10:59:29;;;;;;;1.83;1.05;;;;;;;9.91;64.05;99319.38;5133030;27;20111;-70
2021/03/14 11:02:17;;;;;;;2.75;1.35;;;;;;;9.98;65.18;99320.63;5132931;28;20385;-67
2021/03/14 11:04:57;;;;;;;3.20;1.23;;;;;;;9.97;63.60;99307.44;5132765;27;20036;-68
2021/03/14 11:07:26;;;;;;;3.05;1.20;;;;;;;9.92;64.13;99301.56;5132808;28;20023;-67
2021/03/14 11:10:05;;;;;;;3.35;1.33;;;;;;;10.03;63.44;99302.47;5132855;27;20503;-70
2021/03/14 11:12:33;;;;;;;2.28;1.25;;;;;;;10.06;63.63;99301.44;5132653;28;20030;-68
2021/03/14 11:14:58;;;;;;;2.53;1.20;;;;;;;10.07;64.62;99276.50;5114862;28;20077;-70
2021/03/14 11:17:29;;;;;;;4.43;1.50;;;;;;;10.25;65.24;99291.16;5132796;27;20039;-71
2021/03/14 11:19:56;;;;;;;4.30;1.80;;;;;;;10.46;63.63;99278.03;5132764;27;20023;-70
2021/03/14 11:22:22;;;;;;;3.38;1.75;;;;;;;10.50;64.20;99275.97;5136674;27;20072;-70
2021/03/14 11:24:48;;;;;;;4.32;1.88;;;;;;;10.53;64.62;99267.78;5136926;27;20031;-71
2021/03/14 11:27:15;;;;;;;3.70;1.80;;;;;;;10.75;63.37;99273.16;5136943;27;20024;-71
2021/03/14 11:29:41;;;;;;;3.70;1.63;;;;;;;10.86;64.57;99270.53;5136135;27;20027;-70
2021/03/14 11:32:13;;;;;;;3.70;1.65;;;;;;;11.00;63.75;99265.94;5097422;28;20127;-70
2021/03/14 11:34:40;;;;;;;7.05;1.65;;;;;;;11.24;64.20;99280.03;5098546;28;20035;-70
2021/03/14 11:37:05;;;;;;;4.28;1.90;;;;;;;11.03;62.68;99263.88;5116055;28;20042;-70
2021/03/14 11:39:31;;;;;;;5.78;1.83;;;;;;;10.88;63.37;99281.91;5114778;28;20024;-71